Flagstaff, Arizona
Current Conditions -  °F | °C
As of 11:57 PM on Friday 24 Oct 2014 (Local Time) from KFLG Reporting Station
Clear Clear  
Wind Chill:   Ceiling: Unl
Heat Index:   Visibility: 10mi
Dew Point: -1°   Wind: 0mph
Humidity: 68%   Direction: NA
Pressure: 30.38"   Gusts: NA
Location:  35.2°N, 111.65°W
Report Text: KFLG 250657Z AUTO 00000KT 10SM CLR 04/M01 A3038 RMK AO2 SLP215 T00441011 402170006 TSNO
Loading
Personal Weather Stations






























Interactive Weather Map New forecast layout! Learn more

10-Day Weather Forecast

Advertisements
Track Severe Weather on mobile